Time;durP1;ratioP1;P1;durP2;ratioP2;P2;SDS_P1;SDS_P2;PMS_P1;PMS_P2;Temp;Humidity;BMP_temperature;BMP_pressure;BME280_temperature;BME280_humidity;BME280_pressure;Samples;Min_cycle;Max_cycle;Signal;HPM_P1;HPM_P2
2022/12/08 00:01:24;;;;;;;5.95;2.00;;;;;;;-143.48;88.16;118439.88;5032742;28;20033;-68
2022/12/08 00:03:50;;;;;;;9.43;2.30;;;;;;;-143.48;88.14;118439.88;5033565;28;20080;-69
2022/12/08 00:09:20;;;;;;;5.18;2.20;;;;;;;-143.48;88.38;118439.88;5033811;28;20079;-69
2022/12/08 00:11:47;;;;;;;6.60;2.17;;;;;;;-143.48;88.48;118439.88;5034071;28;20124;-69
2022/12/08 00:14:12;;;;;;;3.80;1.65;;;;;;;-143.48;88.61;118439.88;5032423;28;20067;-69
2022/12/08 00:16:38;;;;;;;3.58;1.73;;;;;;;-143.48;87.63;118439.88;5033539;28;20457;-69
2022/12/08 00:19:03;;;;;;;6.30;1.90;;;;;;;-143.48;87.23;118439.88;5033440;28;20026;-68
2022/12/08 00:21:28;;;;;;;5.70;2.20;;;;;;;-143.48;87.40;118439.88;5036762;28;20029;-69
2022/12/08 00:23:55;;;;;;;6.53;2.13;;;;;;;-143.48;87.35;118439.88;5037312;28;20097;-69
2022/12/08 00:26:20;;;;;;;7.43;2.17;;;;;;;-143.48;88.24;118439.88;5035850;28;20049;-68
2022/12/08 00:28:46;;;;;;;8.68;2.22;;;;;;;-143.48;87.67;118439.88;5035686;28;20037;-69
2022/12/08 00:31:12;;;;;;;5.13;2.38;;;;;;;-143.48;87.68;118439.88;5037068;28;20033;-69
2022/12/08 00:33:37;;;;;;;7.93;2.70;;;;;;;-143.48;88.59;118439.88;5036608;28;20504;-69
2022/12/08 00:36:11;;;;;;;8.73;2.35;;;;;;;-143.48;88.71;118439.88;5035495;28;20071;-69
2022/12/08 00:38:38;;;;;;;9.73;2.70;;;;;;;-143.48;88.47;118439.88;5036963;28;20040;-69
2022/12/08 00:41:10;;;;;;;7.35;2.47;;;;;;;-143.48;88.77;118439.88;5035137;28;20028;-69
2022/12/08 00:43:36;;;;;;;5.30;2.83;;;;;;;-143.48;88.90;118439.88;5036383;28;20037;-69
2022/12/08 00:46:01;;;;;;;7.35;2.67;;;;;;;-143.48;89.27;118439.88;5036836;28;20264;-69
2022/12/08 00:48:27;;;;;;;6.10;2.72;;;;;;;-143.48;89.22;118439.88;5035459;28;20025;-69
2022/12/08 00:50:52;;;;;;;6.72;2.47;;;;;;;-143.48;89.00;118439.88;5036626;28;20472;-69
2022/12/08 00:53:17;;;;;;;6.05;2.80;;;;;;;-143.48;88.72;118439.88;5036733;28;20030;-69
2022/12/08 00:55:42;;;;;;;4.75;2.80;;;;;;;-143.48;88.50;118439.88;5036183;28;20516;-69
2022/12/08 00:58:08;;;;;;;5.15;2.53;;;;;;;-143.48;88.24;118439.88;5035211;28;20030;-68
2022/12/08 01:00:33;;;;;;;5.75;2.60;;;;;;;-143.48;88.42;118439.88;5036520;28;20021;-69
2022/12/08 01:02:58;;;;;;;4.55;2.45;;;;;;;-143.48;88.64;118439.88;5036316;28;20076;-68
2022/12/08 01:05:23;;;;;;;4.00;2.33;;;;;;;-143.48;88.54;118439.88;5036653;28;20049;-68
2022/12/08 01:07:49;;;;;;;6.47;2.47;;;;;;;-143.48;88.69;118439.88;5036192;28;20036;-68
2022/12/08 01:10:15;;;;;;;7.00;2.85;;;;;;;-143.48;88.79;118439.88;5036174;28;20029;-68
2022/12/08 01:12:40;;;;;;;6.32;3.38;;;;;;;-143.48;88.90;118439.88;5036117;28;20025;-70
2022/12/08 01:15:07;;;;;;;7.68;3.45;;;;;;;-143.48;88.72;118439.88;5039522;28;20030;-69
2022/12/08 01:17:33;;;;;;;10.38;3.83;;;;;;;-143.48;88.62;118439.88;5050378;28;20013;-69
2022/12/08 01:19:58;;;;;;;16.55;5.15;;;;;;;-143.48;88.56;118439.88;5048741;28;20018;-68
2022/12/08 01:22:24;;;;;;;11.07;5.15;;;;;;;-143.48;87.51;118439.88;5037007;28;20084;-69
2022/12/08 01:24:49;;;;;;;11.52;4.47;;;;;;;-143.48;87.29;118439.88;5034647;28;20055;-68
2022/12/08 01:27:15;;;;;;;10.45;4.22;;;;;;;-143.48;87.34;118439.88;5036153;28;20492;-68
2022/12/08 01:29:40;;;;;;;10.65;4.45;;;;;;;-143.48;87.44;118439.88;5035866;28;20025;-69
2022/12/08 01:32:08;;;;;;;7.57;3.90;;;;;;;-143.48;87.60;118439.88;5037031;28;20025;-68
2022/12/08 01:34:33;;;;;;;9.52;3.75;;;;;;;-143.48;87.10;118439.88;5035777;28;20079;-70
2022/12/08 01:36:59;;;;;;;15.30;4.43;;;;;;;-143.48;87.23;118439.88;5035949;28;20033;-70
2022/12/08 01:39:24;;;;;;;12.00;4.60;;;;;;;-143.48;87.67;118439.88;5035504;28;20022;-70
2022/12/08 01:41:49;;;;;;;10.55;4.20;;;;;;;-143.48;88.07;118439.88;5034192;28;20373;-68
2022/12/08 01:44:15;;;;;;;10.95;5.07;;;;;;;-143.48;87.90;118439.88;5035362;28;20025;-69
2022/12/08 01:46:42;;;;;;;9.43;5.32;;;;;;;-143.48;87.85;118439.88;5035334;28;20025;-68
2022/12/08 01:49:10;;;;;;;8.93;5.10;;;;;;;-143.48;88.14;118439.88;5034213;28;20071;-68
2022/12/08 01:51:57;;;;;;;13.38;4.95;;;;;;;-143.48;88.14;118439.88;5035366;28;20028;-70
2022/12/08 01:54:26;;;;;;;11.95;4.00;;;;;;;-143.48;88.48;118439.88;5035259;28;20056;-70
2022/12/08 01:57:01;;;;;;;9.50;4.30;;;;;;;-143.48;88.66;118439.88;5035266;28;20077;-69
2022/12/08 01:59:29;;;;;;;8.98;4.45;;;;;;;-143.48;88.53;118439.88;5035275;28;20037;-69
2022/12/08 02:01:55;;;;;;;10.13;3.33;;;;;;;-143.48;88.53;118439.88;5035138;28;20100;-68
2022/12/08 02:04:20;;;;;;;7.28;3.17;;;;;;;-143.48;87.83;118439.88;5035284;28;20366;-70
2022/12/08 02:06:48;;;;;;;5.53;2.60;;;;;;;-143.48;87.78;118439.88;5035365;28;20040;-70
2022/12/08 02:09:13;;;;;;;4.30;2.10;;;;;;;-143.48;88.40;118439.88;5035231;28;20032;-68
2022/12/08 02:11:39;;;;;;;3.92;1.65;;;;;;;-143.48;87.80;118439.88;5034988;28;20441;-70
2022/12/08 02:14:07;;;;;;;5.15;1.33;;;;;;;-143.48;88.62;118439.88;5034987;28;20120;-70
2022/12/08 02:16:59;;;;;;;5.72;1.75;;;;;;;-143.48;88.80;118439.88;5034912;28;20100;-69
2022/12/08 02:19:42;;;;;;;9.68;1.80;;;;;;;-143.48;88.64;118439.88;5034704;28;20022;-70
2022/12/08 02:22:10;;;;;;;;;;;;;;;-143.48;88.97;118439.88;5035397;28;20036;-69
2022/12/08 02:25:05;;;;;;;3.63;1.70;;;;;;;-143.48;89.87;118439.88;5034761;28;19915;-69
2022/12/08 02:27:43;;;;;;;5.95;2.08;;;;;;;-143.48;89.93;118439.88;5034871;28;20025;-69
2022/12/08 02:30:17;;;;;;;6.32;2.40;;;;;;;-143.48;89.52;118439.88;5034595;28;20080;-69
2022/12/08 02:33:01;;;;;;;5.05;2.55;;;;;;;-143.48;89.25;118439.88;5034915;28;20030;-69
2022/12/08 02:35:34;;;;;;;6.35;2.55;;;;;;;-143.48;89.96;118439.88;5033443;28;20033;-69
2022/12/08 02:38:09;;;;;;;3.92;2.50;;;;;;;-143.48;89.81;118439.88;5034694;28;20552;-69
2022/12/08 02:40:39;;;;;;;5.90;2.80;;;;;;;-143.48;90.18;118439.88;5034638;28;20034;-69
2022/12/08 02:43:15;;;;;;;6.25;3.10;;;;;;;-143.48;89.88;118439.88;5034064;28;20021;-69
2022/12/08 02:45:48;;;;;;;5.30;3.28;;;;;;;-143.48;89.98;118439.88;5034460;28;20032;-69
2022/12/08 02:48:14;;;;;;;;;;;;;;;-143.48;89.49;118439.88;5035020;28;20056;-69
2022/12/08 02:50:39;;;;;;;7.20;3.03;;;;;;;-143.48;89.43;118439.88;5034502;28;19909;-69
2022/12/08 02:53:05;;;;;;;6.68;3.50;;;;;;;-143.48;89.85;118439.88;5034283;28;20091;-69
2022/12/08 02:55:49;;;;;;;6.13;4.15;;;;;;;-143.48;89.84;118439.88;5034401;28;20145;-69
2022/12/08 02:58:43;;;;;;;8.70;4.18;;;;;;;-143.48;89.64;118439.88;5032912;28;20059;-69
2022/12/08 03:01:23;;;;;;;6.22;3.17;;;;;;;-143.48;89.15;118439.88;5034310;28;20033;-69
2022/12/08 03:04:22;;;;;;;7.18;3.30;;;;;;;-143.48;89.51;118439.88;5034207;28;20067;-69
2022/12/08 03:07:12;;;;;;;6.43;3.38;;;;;;;-143.48;89.49;118439.88;5034010;28;20021;-69
2022/12/08 03:10:04;;;;;;;6.72;3.30;;;;;;;-143.48;89.84;118439.88;4997880;28;20067;-69
2022/12/08 03:12:52;;;;;;;4.10;2.25;;;;;;;-143.48;88.25;118439.88;5035730;28;20021;-69
2022/12/08 03:15:20;;;;;;;6.15;3.00;;;;;;;-143.48;88.63;118439.88;5033857;28;20083;-69
2022/12/08 03:17:54;;;;;;;7.65;3.20;;;;;;;-143.48;88.33;118439.88;5039521;28;20029;-68
2022/12/08 03:20:23;;;;;;;7.65;4.15;;;;;;;-143.48;87.51;118439.88;5042372;28;20449;-70
2022/12/08 03:22:52;;;;;;;9.52;5.43;;;;;;;-143.48;87.77;118439.88;5043791;28;20076;-69
2022/12/08 03:25:21;;;;;;;12.90;6.85;;;;;;;-143.48;88.76;118439.88;5042134;28;20017;-69
2022/12/08 03:27:47;;;;;;;13.57;7.43;;;;;;;-143.48;89.00;118439.88;5039106;28;20037;-69
2022/12/08 03:30:13;;;;;;;11.02;7.45;;;;;;;-143.48;88.58;118439.88;5044044;28;20029;-68
2022/12/08 03:32:46;;;;;;;12.90;7.03;;;;;;;-143.48;88.48;118439.88;5039891;28;20048;-69
2022/12/08 03:35:22;;;;;;;12.05;6.47;;;;;;;-143.48;88.51;118439.88;5032730;28;20099;-70
2022/12/08 03:37:48;;;;;;;13.82;6.55;;;;;;;-143.48;89.73;118439.88;5032975;28;20048;-69
2022/12/08 03:40:15;;;;;;;11.13;6.05;;;;;;;-143.48;89.92;118439.88;5034121;28;20021;-69
2022/12/08 03:42:41;;;;;;;11.25;6.32;;;;;;;-143.48;90.01;118439.88;5033582;28;20026;-69
2022/12/08 03:45:06;;;;;;;8.25;5.50;;;;;;;-143.48;90.68;118439.88;5033907;28;20026;-69
2022/12/08 03:47:32;;;;;;;8.55;5.40;;;;;;;-143.48;90.70;118439.88;5033618;28;20025;-69
2022/12/08 03:49:57;;;;;;;8.70;4.05;;;;;;;-143.48;89.46;118439.88;5034276;28;20060;-69
2022/12/08 03:52:22;;;;;;;6.80;3.58;;;;;;;-143.48;89.02;118439.88;5038662;28;20049;-69
2022/12/08 03:54:47;;;;;;;7.32;3.72;;;;;;;-143.48;89.47;118439.88;5034532;28;20438;-69
2022/12/08 03:57:13;;;;;;;6.88;3.70;;;;;;;-143.48;89.60;118439.88;5037662;28;20536;-69
2022/12/08 03:59:38;;;;;;;6.20;3.10;;;;;;;-143.48;89.47;118439.88;5036359;28;20033;-69
2022/12/08 04:02:03;;;;;;;5.20;3.22;;;;;;;-143.48;90.00;118439.88;5037367;28;20053;-69
2022/12/08 04:04:29;;;;;;;6.07;3.15;;;;;;;-143.48;89.53;118439.88;5037318;28;20021;-69
2022/12/08 04:06:54;;;;;;;9.07;3.47;;;;;;;-143.48;88.96;118439.88;5037511;28;20048;-69
2022/12/08 04:09:19;;;;;;;6.45;3.40;;;;;;;-143.48;88.88;118439.88;5037566;28;20033;-69
2022/12/08 04:11:45;;;;;;;7.32;3.30;;;;;;;-143.48;89.42;118439.88;5037771;28;20392;-70
2022/12/08 04:14:10;;;;;;;6.13;3.20;;;;;;;-143.48;89.53;118439.88;5036876;28;20060;-70
2022/12/08 04:16:35;;;;;;;8.50;3.20;;;;;;;-143.48;89.54;118439.88;5036494;28;20111;-70
2022/12/08 04:19:00;;;;;;;7.43;2.97;;;;;;;-143.48;89.83;118439.88;5035529;28;20108;-69
2022/12/08 04:21:26;;;;;;;8.05;2.88;;;;;;;-143.48;90.25;118439.88;5036674;28;20036;-70
2022/12/08 04:23:52;;;;;;;6.35;3.22;;;;;;;-143.48;90.26;118439.88;5036922;28;20076;-70
2022/12/08 04:26:17;;;;;;;8.88;3.92;;;;;;;-143.48;90.25;118439.88;5036926;28;20025;-69
2022/12/08 04:28:43;;;;;;;9.52;3.45;;;;;;;-143.48;89.94;118439.88;5037147;28;20074;-70
2022/12/08 04:31:09;;;;;;;7.07;3.78;;;;;;;-143.48;89.02;118439.88;5037714;28;20034;-70
2022/12/08 04:33:34;;;;;;;6.57;2.90;;;;;;;-143.48;89.56;118439.88;5037050;28;20465;-70
2022/12/08 04:36:00;;;;;;;5.95;2.80;;;;;;;-143.48;89.95;118439.88;5037290;28;20021;-70
2022/12/08 04:38:26;;;;;;;7.07;2.97;;;;;;;-143.48;90.82;118439.88;5037081;28;20357;-70
2022/12/08 04:40:51;;;;;;;7.40;2.60;;;;;;;-143.48;90.18;118439.88;5035498;28;20036;-69
2022/12/08 04:43:16;;;;;;;7.18;2.65;;;;;;;-143.48;90.99;118439.88;5037042;28;20405;-70
2022/12/08 04:45:42;;;;;;;7.88;2.65;;;;;;;-143.48;90.89;118439.88;5036136;28;20025;-70
2022/12/08 04:48:08;;;;;;;4.85;2.00;;;;;;;-143.48;90.61;118439.88;5035956;28;20068;-70
2022/12/08 04:50:33;;;;;;;6.20;1.88;;;;;;;-143.48;90.98;118439.88;5041436;28;20397;-70
2022/12/08 04:52:59;;;;;;;6.70;2.10;;;;;;;-143.48;91.25;118439.88;5036940;28;20025;-69
2022/12/08 04:55:24;;;;;;;9.57;2.38;;;;;;;-143.48;91.63;118439.88;5036846;28;20048;-70
2022/12/08 04:57:49;;;;;;;11.25;2.55;;;;;;;-143.48;91.44;118439.88;5036611;28;20068;-70
2022/12/08 05:00:15;;;;;;;5.07;2.22;;;;;;;-143.48;91.71;118439.88;5036534;28;20060;-70
2022/12/08 05:02:40;;;;;;;7.13;2.30;;;;;;;-143.48;91.09;118439.88;5036185;28;20362;-70
2022/12/08 05:05:06;;;;;;;4.68;2.30;;;;;;;-143.48;91.08;118439.88;5036395;28;20037;-70
2022/12/08 05:07:31;;;;;;;10.75;2.60;;;;;;;-143.48;91.44;118439.88;5036218;28;20097;-70
2022/12/08 05:09:57;;;;;;;3.80;2.40;;;;;;;-143.48;91.52;118439.88;5036511;28;20026;-70
2022/12/08 05:12:22;;;;;;;7.43;2.40;;;;;;;-143.48;91.43;118439.88;5036043;28;20112;-69
2022/12/08 05:14:48;;;;;;;7.82;2.42;;;;;;;-143.48;91.12;118439.88;5036058;28;20022;-70
2022/12/08 05:17:17;;;;;;;7.97;2.45;;;;;;;-143.48;91.12;118439.88;5034721;28;20120;-69
2022/12/08 05:19:43;;;;;;;3.22;1.65;;;;;;;-143.48;91.02;118439.88;5036175;28;20029;-69
2022/12/08 05:22:08;;;;;;;5.05;1.52;;;;;;;-143.48;90.84;118439.88;5034775;28;20032;-70
2022/12/08 05:24:34;;;;;;;3.70;1.10;;;;;;;-143.48;89.01;118439.88;5036303;28;20454;-70
2022/12/08 05:26:59;;;;;;;1.73;0.90;;;;;;;-143.48;89.19;118439.88;5036096;28;20462;-68
2022/12/08 05:29:24;;;;;;;6.78;0.82;;;;;;;-143.48;89.13;118439.88;5034615;28;20388;-68
2022/12/08 05:31:50;;;;;;;1.50;0.90;;;;;;;-143.48;89.19;118439.88;5036015;28;20067;-68
2022/12/08 05:34:15;;;;;;;2.33;0.85;;;;;;;-143.48;88.79;118439.88;5035909;28;20026;-68
2022/12/08 05:36:40;;;;;;;5.22;0.70;;;;;;;-143.48;89.22;118439.88;5034363;28;20401;-68
2022/12/08 05:39:05;;;;;;;2.15;0.52;;;;;;;-143.48;88.36;118439.88;5035685;28;20112;-69
2022/12/08 05:41:31;;;;;;;3.17;0.60;;;;;;;-143.48;88.56;118439.88;5035611;28;20083;-69
2022/12/08 05:43:56;;;;;;;2.33;1.10;;;;;;;-143.48;88.82;118439.88;5035592;28;20037;-71
2022/12/08 05:46:21;;;;;;;5.70;1.50;;;;;;;-143.48;88.49;118439.88;5035757;28;20025;-69
2022/12/08 05:48:47;;;;;;;6.20;2.20;;;;;;;-143.48;88.64;118439.88;5039734;28;20049;-70
2022/12/08 05:51:21;;;;;;;6.03;1.60;;;;;;;-143.48;88.34;118439.88;5045819;28;20025;-69
2022/12/08 05:53:48;;;;;;;3.05;1.05;;;;;;;-143.48;88.24;118439.88;5043490;28;20029;-70
2022/12/08 05:56:13;;;;;;;1.70;0.82;;;;;;;-143.48;88.09;118439.88;5035797;28;20065;-69
2022/12/08 05:58:40;;;;;;;2.80;1.00;;;;;;;-143.48;88.02;118439.88;5036394;28;20052;-69
2022/12/08 06:01:06;;;;;;;5.45;0.95;;;;;;;-143.48;88.12;118439.88;5044823;28;20030;-69
2022/12/08 06:03:31;;;;;;;3.00;0.60;;;;;;;-143.48;88.08;118439.88;5045461;28;20045;-70
2022/12/08 06:05:57;;;;;;;3.13;0.75;;;;;;;-143.48;88.92;118439.88;5035443;28;20060;-69
2022/12/08 06:08:22;;;;;;;2.08;0.70;;;;;;;-143.48;88.59;118439.88;5034552;28;20477;-69
2022/12/08 06:10:48;;;;;;;1.80;0.80;;;;;;;-143.48;89.19;118439.88;5033699;28;20036;-69
2022/12/08 06:13:13;;;;;;;3.05;0.90;;;;;;;-143.48;89.75;118439.88;5033746;28;20096;-69
2022/12/08 06:15:40;;;;;;;1.10;0.70;;;;;;;-143.48;89.14;118439.88;5040497;28;20026;-69
2022/12/08 06:18:06;;;;;;;1.67;0.80;;;;;;;-143.48;88.66;118439.88;5033323;28;20044;-69
2022/12/08 06:20:33;;;;;;;4.32;0.90;;;;;;;-143.48;89.27;118439.88;5033548;28;20481;-69
2022/12/08 06:22:58;;;;;;;2.53;0.90;;;;;;;-143.48;89.02;118439.88;5034721;28;20652;-69
2022/12/08 06:25:24;;;;;;;2.05;1.13;;;;;;;-143.48;88.92;118439.88;5035525;28;20049;-70
2022/12/08 06:27:49;;;;;;;1.23;0.70;;;;;;;-143.48;88.49;118439.88;5033610;28;20032;-69
2022/12/08 06:30:16;;;;;;;1.73;0.80;;;;;;;-143.48;88.62;118439.88;5034199;28;20350;-69
2022/12/08 06:32:41;;;;;;;1.85;0.65;;;;;;;-143.48;88.55;118439.88;5039226;28;20028;-69
2022/12/08 06:35:07;;;;;;;2.15;0.90;;;;;;;-143.48;88.73;118439.88;5034891;28;20021;-69
2022/12/08 06:37:33;;;;;;;1.92;0.75;;;;;;;-143.48;88.79;118439.88;5033193;28;20053;-69
2022/12/08 06:39:58;;;;;;;1.50;0.93;;;;;;;-143.48;89.55;118439.88;5034780;28;20024;-69
2022/12/08 06:45:08;;;;;;;2.35;1.13;;;;;;;-143.48;89.13;118439.88;5034618;28;20068;-70
2022/12/08 06:47:34;;;;;;;2.58;1.40;;;;;;;-143.48;89.07;118439.88;5034424;28;20037;-69
2022/12/08 06:49:59;;;;;;;4.70;1.75;;;;;;;-143.48;89.31;118439.88;5038084;28;20104;-69
2022/12/08 06:52:24;;;;;;;4.05;2.10;;;;;;;-143.48;89.14;118439.88;5034226;28;20071;-69
2022/12/08 06:54:50;;;;;;;5.68;2.90;;;;;;;-143.48;88.84;118439.88;5034004;28;20021;-69
2022/12/08 06:57:17;;;;;;;6.03;3.25;;;;;;;-143.48;89.14;118439.88;5034258;28;20511;-69
2022/12/08 06:59:42;;;;;;;6.75;3.70;;;;;;;-143.48;88.83;118439.88;5034218;28;20025;-69
2022/12/08 07:02:08;;;;;;;6.45;3.38;;;;;;;-143.48;88.53;118439.88;5034156;28;20026;-69
2022/12/08 07:04:33;;;;;;;5.97;2.90;;;;;;;-143.48;88.77;118439.88;5034548;28;20148;-69
2022/12/08 07:06:58;;;;;;;4.70;2.53;;;;;;;-143.48;89.15;118439.88;5034057;28;20369;-69
2022/12/08 07:09:24;;;;;;;6.30;2.42;;;;;;;-143.48;89.93;118439.88;5034698;28;20021;-69
2022/12/08 07:11:49;;;;;;;4.10;2.53;;;;;;;-143.48;89.72;118439.88;5034047;28;20477;-69
2022/12/08 07:14:14;;;;;;;3.60;2.10;;;;;;;-143.48;89.56;118439.88;5033718;28;20063;-69
2022/12/08 07:16:40;;;;;;;3.17;1.90;;;;;;;-143.48;89.58;118439.88;5038091;28;20045;-69
2022/12/08 07:19:06;;;;;;;5.43;1.92;;;;;;;-143.48;89.52;118439.88;5042710;28;20048;-70
2022/12/08 07:21:32;;;;;;;3.97;2.03;;;;;;;-143.48;89.60;118439.88;5039892;28;20059;-69
2022/12/08 07:23:57;;;;;;;3.35;1.80;;;;;;;-143.48;89.99;118439.88;5033783;28;20393;-69
2022/12/08 07:26:23;;;;;;;4.47;2.05;;;;;;;-143.48;90.04;118439.88;5033905;28;20022;-70
2022/12/08 07:28:48;;;;;;;4.90;1.70;;;;;;;-143.48;90.31;118439.88;5032628;28;20120;-69
2022/12/08 07:31:22;;;;;;;7.40;1.67;;;;;;;-143.48;89.93;118439.88;5031657;28;20032;-69
2022/12/08 07:33:49;;;;;;;3.67;1.50;;;;;;;-143.48;90.16;118439.88;5032435;28;20025;-69
2022/12/08 07:36:14;;;;;;;2.58;1.50;;;;;;;-143.48;90.12;118439.88;5030630;28;20053;-69
2022/12/08 07:38:40;;;;;;;3.60;1.60;;;;;;;-143.48;89.62;118439.88;5031974;28;20048;-69
2022/12/08 07:41:10;;;;;;;2.17;1.30;;;;;;;-143.48;89.30;118439.88;5030937;28;20108;-69
2022/12/08 07:43:35;;;;;;;2.35;1.20;;;;;;;-143.48;89.81;118439.88;5032063;28;20104;-68
2022/12/08 07:46:01;;;;;;;3.13;1.40;;;;;;;-143.48;90.18;118439.88;5031703;28;20536;-69
2022/12/08 07:48:26;;;;;;;4.57;1.50;;;;;;;-143.48;90.53;118439.88;5033131;28;20029;-69
2022/12/08 07:50:59;;;;;;;2.63;1.20;;;;;;;-143.48;90.44;118439.88;5033057;28;20060;-69
2022/12/08 07:53:24;;;;;;;3.00;1.67;;;;;;;-143.48;91.09;118439.88;5033073;28;20026;-71
2022/12/08 07:55:49;;;;;;;3.95;1.70;;;;;;;-143.48;90.23;118439.88;5032770;28;20091;-69
2022/12/08 07:58:14;;;;;;;2.20;1.40;;;;;;;-143.48;89.75;118439.88;5033153;28;20465;-69
2022/12/08 08:00:40;;;;;;;2.70;1.70;;;;;;;-143.48;89.70;118439.88;5036117;28;20060;-70
2022/12/08 08:03:07;;;;;;;5.05;1.80;;;;;;;-143.48;89.99;118439.88;5034180;28;20080;-71
2022/12/08 08:05:32;;;;;;;3.80;2.20;;;;;;;-143.48;89.36;118439.88;5042543;28;20045;-70
2022/12/08 08:07:58;;;;;;;3.25;1.50;;;;;;;-143.48;89.14;118439.88;5034661;28;20021;-70
2022/12/08 08:10:23;;;;;;;2.53;1.40;;;;;;;-143.48;89.93;118439.88;5035881;28;20437;-69
2022/12/08 08:12:48;;;;;;;2.88;1.20;;;;;;;-143.48;89.18;118439.88;5033816;28;20017;-68
2022/12/08 08:15:14;;;;;;;1.20;0.93;;;;;;;-143.48;89.29;118439.88;5035066;28;20018;-69
2022/12/08 08:17:39;;;;;;;2.00;1.17;;;;;;;-143.48;89.03;118439.88;5033249;28;20057;-69
2022/12/08 08:20:06;;;;;;;2.22;1.38;;;;;;;-143.48;88.96;118439.88;5033968;28;20469;-68
2022/12/08 08:22:32;;;;;;;2.05;1.10;;;;;;;-143.48;88.83;118439.88;5032604;28;20116;-68
2022/12/08 08:24:57;;;;;;;1.40;0.80;;;;;;;-143.48;89.17;118439.88;5033599;28;20060;-68
2022/12/08 08:27:23;;;;;;;1.08;0.70;;;;;;;-143.48;88.73;118439.88;5033801;28;20033;-68
2022/12/08 08:29:49;;;;;;;12.38;1.30;;;;;;;-143.48;88.60;118439.88;5033636;28;20022;-69
2022/12/08 08:32:14;;;;;;;1.42;0.77;;;;;;;-143.48;88.21;118439.88;5037443;28;20032;-70
2022/12/08 08:34:40;;;;;;;3.75;1.15;;;;;;;-143.48;88.71;118439.88;5033527;28;20056;-70
2022/12/08 08:37:05;;;;;;;3.58;1.00;;;;;;;-143.48;89.27;118439.88;5042170;28;20064;-69
2022/12/08 08:39:30;;;;;;;2.78;0.98;;;;;;;-143.48;88.90;118439.88;5035328;28;20021;-69
2022/12/08 08:41:56;;;;;;;3.38;1.40;;;;;;;-143.48;88.44;118439.88;5036037;28;20465;-69
2022/12/08 08:44:22;;;;;;;3.25;1.13;;;;;;;-143.48;88.40;118439.88;5036775;28;20097;-69
2022/12/08 08:46:47;;;;;;;5.88;1.17;;;;;;;-143.48;88.06;118439.88;5037640;28;20021;-69
2022/12/08 08:49:12;;;;;;;4.47;1.60;;;;;;;-143.48;88.27;118439.88;5037153;28;20052;-69
2022/12/08 08:51:38;;;;;;;4.75;1.35;;;;;;;-143.48;88.25;118439.88;5040219;28;20025;-69
2022/12/08 08:54:03;;;;;;;5.35;1.50;;;;;;;-143.48;86.96;118439.88;5039827;28;20025;-69
2022/12/08 08:56:28;;;;;;;3.15;1.50;;;;;;;-143.48;87.44;118439.88;5037121;28;20107;-68
2022/12/08 08:58:54;;;;;;;2.08;1.30;;;;;;;-143.48;88.04;118439.88;5036928;28;20113;-68
2022/12/08 09:01:23;;;;;;;2.05;1.33;;;;;;;-143.48;88.22;118439.88;5038069;28;20025;-68
2022/12/08 09:03:49;;;;;;;3.92;1.40;;;;;;;-143.48;89.26;118439.88;5035899;28;20029;-68
2022/12/08 09:06:14;;;;;;;3.55;1.40;;;;;;;-143.48;88.98;118439.88;5038833;28;20026;-68
2022/12/08 09:08:44;;;;;;;3.08;1.83;;;;;;;-143.48;88.72;118439.88;5035239;28;20021;-68
2022/12/08 09:11:09;;;;;;;4.20;1.73;;;;;;;-143.48;89.04;118439.88;5035686;28;20025;-69
2022/12/08 09:13:35;;;;;;;2.97;1.40;;;;;;;-143.48;88.51;118439.88;5036861;28;20033;-69
2022/12/08 09:16:02;;;;;;;3.75;1.83;;;;;;;-143.48;88.75;118439.88;5037383;28;20017;-69
2022/12/08 09:18:28;;;;;;;3.55;1.50;;;;;;;-143.48;88.05;118439.88;5035743;28;20025;-69
2022/12/08 09:20:55;;;;;;;8.98;1.70;;;;;;;-143.48;88.23;118439.88;5037221;28;20036;-68
2022/12/08 09:23:21;;;;;;;6.50;1.60;;;;;;;-143.48;88.52;118439.88;5036428;28;20052;-69
2022/12/08 09:25:46;;;;;;;4.25;1.50;;;;;;;-143.48;88.42;118439.88;5035635;28;20111;-69
2022/12/08 09:28:13;;;;;;;3.25;1.60;;;;;;;-143.48;88.86;118439.88;5035615;28;20406;-69
2022/12/08 09:30:39;;;;;;;6.18;1.58;;;;;;;-143.48;88.60;118439.88;5036114;28;20473;-69
2022/12/08 09:33:04;;;;;;;2.40;1.48;;;;;;;-143.48;88.07;118439.88;5035888;28;20112;-69
2022/12/08 09:35:29;;;;;;;6.50;1.52;;;;;;;-143.48;88.01;118439.88;5037626;28;20044;-69
2022/12/08 09:37:55;;;;;;;3.58;1.58;;;;;;;-143.48;89.34;118439.88;5036193;28;20026;-69
2022/12/08 09:40:23;;;;;;;3.25;2.00;;;;;;;-143.48;89.54;118439.88;5036397;28;20033;-69
2022/12/08 09:43:18;;;;;;;3.42;1.48;;;;;;;-143.48;88.72;118439.88;5035072;28;20025;-67
2022/12/08 09:45:44;;;;;;;5.65;1.65;;;;;;;-143.48;88.95;118439.88;5034658;28;20408;-68
2022/12/08 09:48:21;;;;;;;3.50;1.70;;;;;;;-143.48;87.35;118439.88;5038780;28;20025;-68
2022/12/08 09:50:56;;;;;;;2.15;1.40;;;;;;;-143.48;87.10;118439.88;5034233;28;20048;-68
2022/12/08 09:53:25;;;;;;;3.40;1.48;;;;;;;-143.48;87.39;118439.88;5035181;28;20018;-68
2022/12/08 09:55:55;;;;;;;3.25;1.50;;;;;;;-143.48;87.82;118439.88;5036043;28;20047;-68
2022/12/08 09:58:34;;;;;;;6.22;1.60;;;;;;;-143.48;87.79;118439.88;5035751;28;20082;-67
2022/12/08 10:00:59;;;;;;;3.72;1.58;;;;;;;-143.48;88.14;118439.88;5037592;28;20025;-68
2022/12/08 10:03:29;;;;;;;5.03;1.52;;;;;;;-143.48;87.63;118439.88;5036884;28;20029;-68
2022/12/08 10:06:18;;;;;;;3.55;1.25;;;;;;;-143.48;88.06;118439.88;5036474;28;20044;-69
2022/12/08 10:08:59;;;;;;;2.10;1.13;;;;;;;-143.48;87.92;118439.88;5037299;28;20064;-69
2022/12/08 10:11:57;;;;;;;4.88;1.30;;;;;;;-143.48;86.85;118439.88;5035936;28;20052;-68
2022/12/08 10:14:35;;;;;;;8.90;1.05;;;;;;;-143.48;86.65;118439.88;5002569;28;20045;-68
2022/12/08 10:17:09;;;;;;;4.18;1.10;;;;;;;-143.48;86.82;118439.88;5035221;28;20024;-68
2022/12/08 10:19:35;;;;;;;7.68;1.58;;;;;;;-143.48;86.50;118439.88;5035620;28;20025;-68
2022/12/08 10:22:03;;;;;;;4.03;1.48;;;;;;;-143.48;87.01;118439.88;5034618;28;20465;-68
2022/12/08 10:24:38;;;;;;;2.42;1.30;;;;;;;-143.48;86.13;118439.88;5033184;28;20021;-67
2022/12/08 10:27:04;;;;;;;1.90;1.23;;;;;;;-143.48;86.76;118439.88;5035986;28;20036;-68
2022/12/08 10:29:29;;;;;;;2.72;1.75;;;;;;;-143.48;87.13;118439.88;5035619;28;20025;-67
2022/12/08 10:31:58;;;;;;;3.42;1.77;;;;;;;-143.48;86.80;118439.88;5036114;28;20048;-69
2022/12/08 10:34:23;;;;;;;4.68;1.92;;;;;;;-143.48;86.66;118439.88;5037243;28;20044;-68
2022/12/08 10:36:56;;;;;;;4.00;1.70;;;;;;;-143.48;86.98;118439.88;5037251;28;20029;-68
2022/12/08 10:39:37;;;;;;;7.13;1.73;;;;;;;-143.48;87.46;118439.88;5037346;28;20032;-68
2022/12/08 10:42:13;;;;;;;4.05;1.70;;;;;;;-143.48;87.65;118439.88;5036238;28;20453;-70
2022/12/08 10:44:55;;;;;;;2.05;1.30;;;;;;;-143.48;86.98;118439.88;5037544;28;20112;-67
2022/12/08 10:47:23;;;;;;;1.60;1.30;;;;;;;-143.48;87.36;118439.88;5036042;28;20381;-67
2022/12/08 10:50:25;;;;;;;2.40;1.42;;;;;;;-143.48;87.62;118439.88;5037081;28;20025;-69
2022/12/08 10:52:56;;;;;;;3.80;2.40;;;;;;;-143.48;88.30;118439.88;4996229;28;20484;-67
2022/12/08 10:55:22;;;;;;;3.60;1.70;;;;;;;-143.48;87.13;118439.88;5037091;28;20120;-67
2022/12/08 10:57:50;;;;;;;2.80;1.40;;;;;;;-143.48;86.19;118439.88;5037950;28;20080;-68
2022/12/08 11:00:19;;;;;;;2.90;1.50;;;;;;;-143.48;86.55;118439.88;5037193;28;20060;-68
2022/12/08 11:02:54;;;;;;;3.53;1.60;;;;;;;-143.48;86.43;118439.88;5037855;28;20112;-68
2022/12/08 11:05:24;;;;;;;3.17;1.80;;;;;;;-143.48;86.87;118439.88;5037368;28;20029;-68
2022/12/08 11:07:52;;;;;;;3.78;2.10;;;;;;;-143.48;86.63;118439.88;5035852;28;20052;-68
2022/12/08 11:10:19;;;;;;;6.50;2.40;;;;;;;-143.48;86.19;118439.88;5038194;28;20049;-68
2022/12/08 11:12:45;;;;;;;4.05;1.98;;;;;;;-143.48;85.78;118439.88;5037013;28;20033;-68
2022/12/08 11:15:15;;;;;;;3.72;2.10;;;;;;;-143.48;85.96;118439.88;5033157;28;20040;-69
2022/12/08 11:17:42;;;;;;;4.97;2.30;;;;;;;-143.48;83.75;118439.88;5034654;28;20087;-69
2022/12/08 11:20:07;;;;;;;3.30;2.20;;;;;;;-143.48;83.69;118439.88;5032880;28;20034;-69